首页
METAR-TAF:

METAR-TAF

机场 :

山美納省, 多米尼加共和国

纬度: 19-16-12N, 经度: 69-44-15W, 海拔: 4米

当前天气观测

该预报发布于1小时和1分钟前的15:00 UTC
风速10节,风向
温度 30°C
湿度 75%
气压 1019 hPa
能见度10公里或以上
散云层高于2000英尺

METAR: MDCY 161500Z 09010KT 9999 SCT020 30/25 Q1019

时间: 12:01 (16:01 UTC)

预报

该预报发布于6小时和1分钟前的10:00 UTC
预报有效从16日的 12点(UTC)到 17日的 12点(UTC)
风速节,风向
能见度10公里或以上
散云层高于1800英尺
散云层高于30000英尺
成为
从 16日的 14点(UTC)到 16日的 16点(UTC)
风速10节,风向
几率 40% :
短暂存在
从 16日的 17点(UTC)到 16日的 23点(UTC)
能見度: 7000
少量云层高于1600英尺, 积雨云.
多云层高于1600英尺
散云层高于7000英尺
小雨

TAF: MDCY 161000Z 1612/1712 00000KT 9999 SCT018 SCT300 BECMG 1614/1616 09010KT PROB40 TEMPO 1617/1623 7000 -RA FEW016CB BKN016 SCT070

超过4000个机场的气象观测和天气预报(METAR&TAF报告)。

可查询的气象台以黄色和红色小点在地图上表示。

将鼠标移到小点上方,可查看气象台名称。

然后点击查看天气观测和预报。

如需切换地图:点击带黑十字的绿色按钮放大地图;点击带横线的绿色按钮缩小地图;或者点击绿色箭头查看邻近地区的地图。


METAR-TAF: